createdAt,value
2023-06-18T00:01:00.456Z,12.9
2023-06-18T00:11:01.807Z,12.9
2023-06-18T00:21:03.190Z,12.8
2023-06-18T00:41:05.927Z,12.7
2023-06-18T00:51:07.295Z,12.7
2023-06-18T01:01:08.670Z,12.7
2023-06-18T01:21:11.439Z,12.5
2023-06-18T01:41:14.223Z,12.5
2023-06-18T02:11:25.011Z,12.3
2023-06-18T02:21:19.729Z,12.2
2023-06-18T02:31:27.745Z,12
2023-06-18T02:41:22.442Z,12.1
2023-06-18T02:51:23.852Z,12
2023-06-18T03:01:25.272Z,11.8
2023-06-18T03:31:29.364Z,11.8
2023-06-18T03:41:30.746Z,11.7
2023-06-18T04:01:33.512Z,11.7
2023-06-18T04:11:34.982Z,11.7
2023-06-18T04:31:37.646Z,11.5
2023-06-18T04:41:39.025Z,11.6
2023-06-18T04:51:40.420Z,11.7
2023-06-18T05:21:44.578Z,11.8
2023-06-18T05:31:45.949Z,11.7
2023-06-18T05:41:47.307Z,11.9
2023-06-18T05:51:48.695Z,11.9
2023-06-18T06:11:51.463Z,12.2
2023-06-18T06:31:54.248Z,12.5
2023-06-18T06:41:55.635Z,12.9
2023-06-18T06:51:56.994Z,13.2
2023-06-18T07:01:58.434Z,13.9
2023-06-18T07:11:59.774Z,14.4
2023-06-18T07:32:02.562Z,15.2
2023-06-18T07:42:03.946Z,15.5
2023-06-18T08:02:06.703Z,16.3
2023-06-18T08:12:08.027Z,17.1
2023-06-18T08:22:09.407Z,17.3
2023-06-18T08:42:12.147Z,17.9
2023-06-18T08:52:13.507Z,18.3
2023-06-18T09:02:14.907Z,18.3
2023-06-18T09:12:16.227Z,19.1
2023-06-18T09:22:17.611Z,19.6
2023-06-18T09:42:20.356Z,20.2
2023-06-18T10:02:23.057Z,20.8
2023-06-18T10:12:24.354Z,20.9
2023-06-18T10:32:27.059Z,21.5
2023-06-18T10:42:28.463Z,21.9
2023-06-18T10:52:30.442Z,21.4
2023-06-18T11:02:31.139Z,21.3
2023-06-18T11:12:32.464Z,22.2
2023-06-18T11:22:33.774Z,22.7
2023-06-18T11:42:36.467Z,23.2
2023-06-18T11:52:37.835Z,23.3
2023-06-18T12:02:39.218Z,23.5
2023-06-18T12:12:40.649Z,23
2023-06-18T12:32:43.286Z,22
2023-06-18T12:42:44.604Z,21.6
2023-06-18T12:52:46.104Z,21
2023-06-18T13:02:47.337Z,20.8
2023-06-18T13:12:48.656Z,20.5
2023-06-18T13:22:50.041Z,20.1
2023-06-18T14:02:55.460Z,19.2
2023-06-18T14:12:56.775Z,19.2
2023-06-18T14:22:58.215Z,19.1
2023-06-18T14:32:59.526Z,19.4
2023-06-18T14:43:00.886Z,19.6
2023-06-18T15:13:04.995Z,19.7
2023-06-18T15:33:07.779Z,20.6
2023-06-18T15:53:10.460Z,21.1
2023-06-18T16:03:11.845Z,20.9
2023-06-18T16:13:13.196Z,20.8
2023-06-18T16:23:14.575Z,20.7
2023-06-18T16:33:15.954Z,20.7
2023-06-18T16:43:17.287Z,20.6
2023-06-18T16:53:18.650Z,20.5
2023-06-18T17:03:20.032Z,20.2
2023-06-18T17:33:24.125Z,19.6
2023-06-18T17:43:25.501Z,19.6
2023-06-18T17:53:26.880Z,19.5
2023-06-18T18:03:28.272Z,19.5
2023-06-18T18:23:30.983Z,18.8
2023-06-18T18:43:33.681Z,18.5
2023-06-18T18:53:35.057Z,17.9
2023-06-18T19:03:36.444Z,17.5
2023-06-18T19:13:37.789Z,17.2
2023-06-18T19:23:39.172Z,17.2
2023-06-18T19:33:40.612Z,17.2
2023-06-18T19:43:42.154Z,16.7
2023-06-18T19:53:43.584Z,16.4
2023-06-18T20:23:47.766Z,15.3
2023-06-18T20:33:48.886Z,15.3
2023-06-18T20:43:50.341Z,15.2
2023-06-18T20:53:51.736Z,15.2
2023-06-18T21:23:56.009Z,15
2023-06-18T21:33:57.364Z,14.8
2023-06-18T21:43:59.116Z,14.8
2023-06-18T21:53:59.985Z,14.8
2023-06-18T22:14:02.744Z,14.8
2023-06-18T22:24:04.234Z,14.8
2023-06-18T22:34:05.524Z,14.7
2023-06-18T22:44:06.896Z,14.7
2023-06-18T22:54:08.304Z,14.7
2023-06-18T23:24:12.524Z,14.4
2023-06-18T23:34:13.877Z,14.4
2023-06-18T23:44:15.258Z,14.3
2023-06-18T23:54:16.666Z,14.4
